sensor_id;sensor_type;location;lat;lon;timestamp;P1;durP1;ratioP1;P2;durP2;ratioP2
24743;SDS011;12844;52.110;5.548;2023-02-10T05:47:31;7.13;;;6.03;;
24743;SDS011;12844;52.110;5.548;2023-02-10T05:49:56;6.22;;;5.22;;
24743;SDS011;12844;52.110;5.548;2023-02-10T05:52:22;5.82;;;5.22;;
24743;SDS011;12844;52.110;5.548;2023-02-10T05:54:47;7.13;;;6.40;;
24743;SDS011;12844;52.110;5.548;2023-02-10T05:57:13;6.78;;;5.80;;
24743;SDS011;12844;52.110;5.548;2023-02-10T05:59:38;5.65;;;5.15;;
24743;SDS011;12844;52.110;5.548;2023-02-10T06:02:04;6.38;;;5.78;;
24743;SDS011;12844;52.110;5.548;2023-02-10T06:04:29;6.95;;;5.90;;
24743;SDS011;12844;52.110;5.548;2023-02-10T06:06:55;7.20;;;5.88;;
24743;SDS011;12844;52.110;5.548;2023-02-10T06:09:20;6.50;;;5.72;;
24743;SDS011;12844;52.110;5.548;2023-02-10T06:11:47;6.45;;;5.65;;
24743;SDS011;12844;52.110;5.548;2023-02-10T06:14:16;7.32;;;6.22;;
24743;SDS011;12844;52.110;5.548;2023-02-10T06:16:42;6.53;;;5.78;;
24743;SDS011;12844;52.110;5.548;2023-02-10T06:19:08;6.10;;;5.50;;
24743;SDS011;12844;52.110;5.548;2023-02-10T06:21:33;7.55;;;6.07;;
24743;SDS011;12844;52.110;5.548;2023-02-10T06:23:59;6.32;;;5.55;;
24743;SDS011;12844;52.110;5.548;2023-02-10T06:26:24;6.43;;;5.80;;
24743;SDS011;12844;52.110;5.548;2023-02-10T06:28:52;6.68;;;5.97;;
24743;SDS011;12844;52.110;5.548;2023-02-10T06:31:18;7.30;;;5.90;;
24743;SDS011;12844;52.110;5.548;2023-02-10T06:33:44;7.40;;;6.30;;
24743;SDS011;12844;52.110;5.548;2023-02-10T06:36:10;6.72;;;6.00;;
24743;SDS011;12844;52.110;5.548;2023-02-10T06:38:35;6.55;;;5.80;;
24743;SDS011;12844;52.110;5.548;2023-02-10T06:41:02;6.82;;;6.05;;
24743;SDS011;12844;52.110;5.548;2023-02-10T06:43:28;6.65;;;5.97;;
24743;SDS011;12844;52.110;5.548;2023-02-10T06:45:53;6.70;;;6.00;;
24743;SDS011;12844;52.110;5.548;2023-02-10T06:48:19;6.18;;;5.50;;
24743;SDS011;12844;52.110;5.548;2023-02-10T06:50:45;6.90;;;5.85;;
24743;SDS011;12844;52.110;5.548;2023-02-10T06:53:10;6.10;;;5.47;;
24743;SDS011;12844;52.110;5.548;2023-02-10T06:55:36;6.50;;;5.50;;
24743;SDS011;12844;52.110;5.548;2023-02-10T06:58:01;7.25;;;5.97;;
24743;SDS011;12844;52.110;5.548;2023-02-10T07:00:28;7.25;;;5.95;;
24743;SDS011;12844;52.110;5.548;2023-02-10T07:02:54;6.70;;;5.90;;
24743;SDS011;12844;52.110;5.548;2023-02-10T07:05:20;6.35;;;5.75;;
24743;SDS011;12844;52.110;5.548;2023-02-10T07:07:45;6.65;;;5.45;;
24743;SDS011;12844;52.110;5.548;2023-02-10T07:10:11;6.72;;;6.00;;
24743;SDS011;12844;52.110;5.548;2023-02-10T07:12:37;6.63;;;5.85;;
24743;SDS011;12844;52.110;5.548;2023-02-10T07:15:03;6.63;;;5.95;;
24743;SDS011;12844;52.110;5.548;2023-02-10T07:17:30;6.50;;;5.40;;
24743;SDS011;12844;52.110;5.548;2023-02-10T07:19:56;6.32;;;5.65;;
24743;SDS011;12844;52.110;5.548;2023-02-10T07:22:21;7.13;;;6.18;;
24743;SDS011;12844;52.110;5.548;2023-02-10T07:24:47;7.13;;;5.85;;
24743;SDS011;12844;52.110;5.548;2023-02-10T07:27:12;6.38;;;5.57;;
24743;SDS011;12844;52.110;5.548;2023-02-10T07:29:38;6.65;;;5.88;;
24743;SDS011;12844;52.110;5.548;2023-02-10T07:32:04;7.85;;;5.97;;
24743;SDS011;12844;52.110;5.548;2023-02-10T07:34:29;6.18;;;5.38;;
24743;SDS011;12844;52.110;5.548;2023-02-10T07:36:58;6.70;;;5.50;;
24743;SDS011;12844;52.110;5.548;2023-02-10T07:39:25;6.03;;;5.25;;
24743;SDS011;12844;52.110;5.548;2023-02-10T07:41:51;7.13;;;5.30;;
24743;SDS011;12844;52.110;5.548;2023-02-10T07:44:18;8.70;;;5.78;;
24743;SDS011;12844;52.110;5.548;2023-02-10T07:46:45;8.48;;;5.60;;
24743;SDS011;12844;52.110;5.548;2023-02-10T07:49:11;6.93;;;5.60;;
24743;SDS011;12844;52.110;5.548;2023-02-10T07:51:37;8.43;;;5.45;;
24743;SDS011;12844;52.110;5.548;2023-02-10T07:54:03;8.15;;;5.88;;
24743;SDS011;12844;52.110;5.548;2023-02-10T07:56:30;8.30;;;5.35;;
24743;SDS011;12844;52.110;5.548;2023-02-10T07:58:55;8.75;;;5.88;;
24743;SDS011;12844;52.110;5.548;2023-02-10T08:01:21;6.70;;;5.38;;
24743;SDS011;12844;52.110;5.548;2023-02-10T08:03:46;6.55;;;4.70;;
24743;SDS011;12844;52.110;5.548;2023-02-10T08:06:12;4.93;;;4.43;;
24743;SDS011;12844;52.110;5.548;2023-02-10T08:08:47;5.38;;;4.88;;
24743;SDS011;12844;52.110;5.548;2023-02-10T08:11:13;6.72;;;4.60;;
24743;SDS011;12844;52.110;5.548;2023-02-10T08:13:39;8.43;;;5.03;;
24743;SDS011;12844;52.110;5.548;2023-02-10T08:16:05;7.88;;;4.65;;
24743;SDS011;12844;52.110;5.548;2023-02-10T08:18:32;6.22;;;4.30;;
24743;SDS011;12844;52.110;5.548;2023-02-10T08:20:59;6.00;;;4.10;;
24743;SDS011;12844;52.110;5.548;2023-02-10T08:23:26;5.43;;;3.97;;
24743;SDS011;12844;52.110;5.548;2023-02-10T08:25:52;6.43;;;3.85;;
24743;SDS011;12844;52.110;5.548;2023-02-10T08:28:18;7.15;;;3.95;;
24743;SDS011;12844;52.110;5.548;2023-02-10T08:30:43;5.60;;;3.92;;
24743;SDS011;12844;52.110;5.548;2023-02-10T08:33:09;6.20;;;4.35;;
24743;SDS011;12844;52.110;5.548;2023-02-10T08:35:35;7.50;;;4.40;;
24743;SDS011;12844;52.110;5.548;2023-02-10T08:38:02;7.15;;;4.60;;
24743;SDS011;12844;52.110;5.548;2023-02-10T08:40:28;6.13;;;3.85;;
24743;SDS011;12844;52.110;5.548;2023-02-10T08:42:53;6.57;;;4.07;;
24743;SDS011;12844;52.110;5.548;2023-02-10T08:45:19;8.40;;;4.20;;
24743;SDS011;12844;52.110;5.548;2023-02-10T08:47:45;6.60;;;3.97;;
24743;SDS011;12844;52.110;5.548;2023-02-10T08:50:10;6.95;;;4.05;;
24743;SDS011;12844;52.110;5.548;2023-02-10T08:52:36;6.45;;;4.50;;
24743;SDS011;12844;52.110;5.548;2023-02-10T08:55:01;5.72;;;4.32;;
24743;SDS011;12844;52.110;5.548;2023-02-10T08:57:27;7.32;;;4.32;;
24743;SDS011;12844;52.110;5.548;2023-02-10T08:59:53;5.75;;;4.28;;
24743;SDS011;12844;52.110;5.548;2023-02-10T09:02:18;7.25;;;4.28;;
24743;SDS011;12844;52.110;5.548;2023-02-10T09:04:44;5.80;;;3.92;;
24743;SDS011;12844;52.110;5.548;2023-02-10T09:07:10;6.47;;;4.53;;
24743;SDS011;12844;52.110;5.548;2023-02-10T09:09:38;5.20;;;4.63;;
24743;SDS011;12844;52.110;5.548;2023-02-10T09:12:06;6.05;;;4.50;;
24743;SDS011;12844;52.110;5.548;2023-02-10T09:14:34;8.55;;;4.35;;
24743;SDS011;12844;52.110;5.548;2023-02-10T09:17:00;5.60;;;4.90;;
24743;SDS011;12844;52.110;5.548;2023-02-10T09:19:25;5.90;;;4.32;;
24743;SDS011;12844;52.110;5.548;2023-02-10T09:21:52;12.75;;;5.32;;
24743;SDS011;12844;52.110;5.548;2023-02-10T09:24:17;7.63;;;4.63;;
24743;SDS011;12844;52.110;5.548;2023-02-10T09:26:43;7.38;;;4.75;;
24743;SDS011;12844;52.110;5.548;2023-02-10T09:29:09;6.53;;;5.00;;
24743;SDS011;12844;52.110;5.548;2023-02-10T09:31:36;6.68;;;4.72;;
24743;SDS011;12844;52.110;5.548;2023-02-10T09:34:02;8.45;;;5.18;;
24743;SDS011;12844;52.110;5.548;2023-02-10T09:36:28;9.02;;;5.20;;
24743;SDS011;12844;52.110;5.548;2023-02-10T09:38:54;7.78;;;4.90;;
24743;SDS011;12844;52.110;5.548;2023-02-10T09:44:09;8.73;;;5.38;;
24743;SDS011;12844;52.110;5.548;2023-02-10T09:46:42;6.40;;;5.38;;
24743;SDS011;12844;52.110;5.548;2023-02-10T09:52:04;9.00;;;5.60;;
24743;SDS011;12844;52.110;5.548;2023-02-10T09:54:44;8.32;;;5.65;;
24743;SDS011;12844;52.110;5.548;2023-02-10T09:57:12;7.93;;;5.55;;
24743;SDS011;12844;52.110;5.548;2023-02-10T09:59:55;10.85;;;6.03;;
24743;SDS011;12844;52.110;5.548;2023-02-10T10:03:05;8.55;;;5.28;;
24743;SDS011;12844;52.110;5.548;2023-02-10T10:05:19;9.73;;;5.90;;
24743;SDS011;12844;52.110;5.548;2023-02-10T10:07:58;7.47;;;5.40;;
24743;SDS011;12844;52.110;5.548;2023-02-10T10:10:31;8.65;;;5.78;;
24743;SDS011;12844;52.110;5.548;2023-02-10T10:13:00;9.13;;;5.90;;
24743;SDS011;12844;52.110;5.548;2023-02-10T10:15:31;9.27;;;5.97;;
24743;SDS011;12844;52.110;5.548;2023-02-10T10:18:17;11.73;;;6.32;;
24743;SDS011;12844;52.110;5.548;2023-02-10T10:20:58;8.70;;;5.53;;
24743;SDS011;12844;52.110;5.548;2023-02-10T10:23:38;8.05;;;5.93;;
24743;SDS011;12844;52.110;5.548;2023-02-10T10:26:24;8.95;;;6.20;;
24743;SDS011;12844;52.110;5.548;2023-02-10T10:32:16;8.98;;;6.28;;
24743;SDS011;12844;52.110;5.548;2023-02-10T10:35:03;10.48;;;7.35;;
24743;SDS011;12844;52.110;5.548;2023-02-10T10:37:38;11.05;;;6.60;;
24743;SDS011;12844;52.110;5.548;2023-02-10T10:40:05;8.52;;;6.53;;
24743;SDS011;12844;52.110;5.548;2023-02-10T10:42:37;10.07;;;6.63;;
24743;SDS011;12844;52.110;5.548;2023-02-10T10:45:16;9.48;;;6.30;;
24743;SDS011;12844;52.110;5.548;2023-02-10T10:51:02;9.05;;;6.57;;
24743;SDS011;12844;52.110;5.548;2023-02-10T10:56:37;11.30;;;7.22;;
24743;SDS011;12844;52.110;5.548;2023-02-10T10:59:25;9.40;;;7.28;;
24743;SDS011;12844;52.110;5.548;2023-02-10T11:02:13;11.00;;;7.03;;
24743;SDS011;12844;52.110;5.548;2023-02-10T11:04:41;11.25;;;7.15;;
24743;SDS011;12844;52.110;5.548;2023-02-10T11:07:09;8.85;;;6.63;;
24743;SDS011;12844;52.110;5.548;2023-02-10T11:09:40;12.40;;;6.85;;
24743;SDS011;12844;52.110;5.548;2023-02-10T11:14:59;9.93;;;7.38;;
24743;SDS011;12844;52.110;5.548;2023-02-10T11:17:28;11.88;;;7.05;;
24743;SDS011;12844;52.110;5.548;2023-02-10T11:19:57;10.02;;;6.60;;
24743;SDS011;12844;52.110;5.548;2023-02-10T11:22:24;9.95;;;7.20;;
24743;SDS011;12844;52.110;5.548;2023-02-10T11:24:54;10.65;;;7.05;;
24743;SDS011;12844;52.110;5.548;2023-02-10T11:27:21;11.70;;;7.50;;
24743;SDS011;12844;52.110;5.548;2023-02-10T11:32:22;10.18;;;6.50;;
24743;SDS011;12844;52.110;5.548;2023-02-10T11:34:54;10.43;;;6.80;;
24743;SDS011;12844;52.110;5.548;2023-02-10T11:40:02;10.43;;;7.22;;
24743;SDS011;12844;52.110;5.548;2023-02-10T11:42:41;9.90;;;6.63;;
24743;SDS011;12844;52.110;5.548;2023-02-10T11:45:22;11.27;;;6.93;;
24743;SDS011;12844;52.110;5.548;2023-02-10T11:48:03;9.30;;;6.82;;
24743;SDS011;12844;52.110;5.548;2023-02-10T11:50:30;11.20;;;6.78;;
24743;SDS011;12844;52.110;5.548;2023-02-10T11:52:58;10.48;;;7.30;;
24743;SDS011;12844;52.110;5.548;2023-02-10T11:55:27;9.32;;;6.72;;
24743;SDS011;12844;52.110;5.548;2023-02-10T12:04:01;11.70;;;7.38;;
24743;SDS011;12844;52.110;5.548;2023-02-10T12:06:40;10.18;;;7.13;;
24743;SDS011;12844;52.110;5.548;2023-02-10T15:59:37;13.02;;;8.75;;
24743;SDS011;12844;52.110;5.548;2023-02-10T16:02:05;11.85;;;9.23;;
24743;SDS011;12844;52.110;5.548;2023-02-10T16:04:35;11.40;;;8.88;;
24743;SDS011;12844;52.110;5.548;2023-02-10T16:07:01;13.35;;;9.20;;
24743;SDS011;12844;52.110;5.548;2023-02-10T16:09:28;14.13;;;8.82;;
24743;SDS011;12844;52.110;5.548;2023-02-10T16:11:55;16.92;;;9.45;;
24743;SDS011;12844;52.110;5.548;2023-02-10T16:14:21;16.05;;;9.18;;
24743;SDS011;12844;52.110;5.548;2023-02-10T16:16:47;15.20;;;9.20;;
24743;SDS011;12844;52.110;5.548;2023-02-10T16:19:18;16.08;;;9.70;;
24743;SDS011;12844;52.110;5.548;2023-02-10T16:21:45;13.10;;;9.00;;
24743;SDS011;12844;52.110;5.548;2023-02-10T16:24:13;14.45;;;9.20;;
24743;SDS011;12844;52.110;5.548;2023-02-10T16:26:40;13.98;;;9.02;;
24743;SDS011;12844;52.110;5.548;2023-02-10T16:29:07;12.60;;;8.50;;
24743;SDS011;12844;52.110;5.548;2023-02-10T16:31:41;13.20;;;9.00;;
24743;SDS011;12844;52.110;5.548;2023-02-10T16:34:07;14.43;;;8.75;;
24743;SDS011;12844;52.110;5.548;2023-02-10T16:36:34;11.88;;;8.45;;
24743;SDS011;12844;52.110;5.548;2023-02-10T16:38:59;14.70;;;8.80;;
24743;SDS011;12844;52.110;5.548;2023-02-10T16:41:25;14.18;;;9.45;;
24743;SDS011;12844;52.110;5.548;2023-02-10T16:43:50;14.75;;;8.57;;
24743;SDS011;12844;52.110;5.548;2023-02-10T16:46:16;13.10;;;8.55;;
24743;SDS011;12844;52.110;5.548;2023-02-10T16:48:43;11.45;;;8.57;;
24743;SDS011;12844;52.110;5.548;2023-02-10T16:51:09;12.60;;;8.32;;
24743;SDS011;12844;52.110;5.548;2023-02-10T16:53:35;13.15;;;8.18;;
24743;SDS011;12844;52.110;5.548;2023-02-10T16:56:00;13.07;;;8.25;;
24743;SDS011;12844;52.110;5.548;2023-02-10T16:58:26;14.85;;;8.50;;
24743;SDS011;12844;52.110;5.548;2023-02-10T17:00:52;13.73;;;8.95;;
24743;SDS011;12844;52.110;5.548;2023-02-10T17:03:18;15.00;;;8.88;;
24743;SDS011;12844;52.110;5.548;2023-02-10T17:05:44;13.77;;;9.40;;
24743;SDS011;12844;52.110;5.548;2023-02-10T17:08:10;13.35;;;8.95;;
24743;SDS011;12844;52.110;5.548;2023-02-10T17:10:36;14.77;;;9.68;;
24743;SDS011;12844;52.110;5.548;2023-02-10T17:13:02;13.00;;;9.80;;
24743;SDS011;12844;52.110;5.548;2023-02-10T17:15:29;16.17;;;10.05;;
24743;SDS011;12844;52.110;5.548;2023-02-10T17:17:55;13.18;;;10.13;;
24743;SDS011;12844;52.110;5.548;2023-02-10T17:20:25;13.18;;;9.63;;
24743;SDS011;12844;52.110;5.548;2023-02-10T17:22:54;16.40;;;10.40;;
24743;SDS011;12844;52.110;5.548;2023-02-10T17:25:21;13.73;;;10.82;;
24743;SDS011;12844;52.110;5.548;2023-02-10T17:27:48;13.38;;;10.95;;
24743;SDS011;12844;52.110;5.548;2023-02-10T17:30:15;17.92;;;10.48;;
24743;SDS011;12844;52.110;5.548;2023-02-10T17:32:43;17.42;;;11.50;;
24743;SDS011;12844;52.110;5.548;2023-02-10T17:35:10;18.27;;;11.55;;
24743;SDS011;12844;52.110;5.548;2023-02-10T17:37:37;14.25;;;11.30;;
24743;SDS011;12844;52.110;5.548;2023-02-10T17:40:03;16.83;;;11.40;;
24743;SDS011;12844;52.110;5.548;2023-02-10T17:42:49;17.70;;;12.13;;
24743;SDS011;12844;52.110;5.548;2023-02-10T17:45:15;15.93;;;12.07;;
24743;SDS011;12844;52.110;5.548;2023-02-10T17:47:42;18.67;;;12.68;;
24743;SDS011;12844;52.110;5.548;2023-02-10T17:50:09;16.23;;;12.27;;
24743;SDS011;12844;52.110;5.548;2023-02-10T17:52:35;20.50;;;12.98;;
24743;SDS011;12844;52.110;5.548;2023-02-10T17:55:01;19.15;;;12.73;;
24743;SDS011;12844;52.110;5.548;2023-02-10T17:57:27;17.25;;;12.95;;
24743;SDS011;12844;52.110;5.548;2023-02-10T17:59:52;17.98;;;13.35;;
24743;SDS011;12844;52.110;5.548;2023-02-10T18:02:18;20.80;;;12.95;;
24743;SDS011;12844;52.110;5.548;2023-02-10T18:04:43;18.02;;;12.93;;
24743;SDS011;12844;52.110;5.548;2023-02-10T18:07:11;15.50;;;12.73;;
24743;SDS011;12844;52.110;5.548;2023-02-10T18:09:37;18.42;;;13.30;;
24743;SDS011;12844;52.110;5.548;2023-02-10T18:12:03;19.40;;;13.27;;
24743;SDS011;12844;52.110;5.548;2023-02-10T18:14:29;19.58;;;13.30;;
24743;SDS011;12844;52.110;5.548;2023-02-10T18:16:57;18.60;;;12.93;;
24743;SDS011;12844;52.110;5.548;2023-02-10T18:19:23;18.02;;;13.70;;
24743;SDS011;12844;52.110;5.548;2023-02-10T18:21:49;18.52;;;13.00;;
24743;SDS011;12844;52.110;5.548;2023-02-10T18:24:15;19.35;;;14.00;;
24743;SDS011;12844;52.110;5.548;2023-02-10T18:26:41;16.60;;;13.68;;
24743;SDS011;12844;52.110;5.548;2023-02-10T18:29:06;18.92;;;13.60;;
24743;SDS011;12844;52.110;5.548;2023-02-10T18:31:33;17.92;;;14.27;;
24743;SDS011;12844;52.110;5.548;2023-02-10T18:33:59;16.02;;;13.32;;
24743;SDS011;12844;52.110;5.548;2023-02-10T18:36:24;19.40;;;14.52;;
24743;SDS011;12844;52.110;5.548;2023-02-10T18:38:50;18.63;;;14.45;;
24743;SDS011;12844;52.110;5.548;2023-02-10T18:41:15;18.42;;;13.88;;
24743;SDS011;12844;52.110;5.548;2023-02-10T18:43:41;17.13;;;14.02;;
24743;SDS011;12844;52.110;5.548;2023-02-10T18:46:07;18.13;;;14.35;;
24743;SDS011;12844;52.110;5.548;2023-02-10T18:48:32;17.50;;;13.65;;
24743;SDS011;12844;52.110;5.548;2023-02-10T18:51:01;17.85;;;13.73;;
24743;SDS011;12844;52.110;5.548;2023-02-10T18:53:29;16.35;;;13.07;;
24743;SDS011;12844;52.110;5.548;2023-02-10T18:56:02;18.77;;;14.63;;
24743;SDS011;12844;52.110;5.548;2023-02-10T18:58:29;19.17;;;13.43;;
24743;SDS011;12844;52.110;5.548;2023-02-10T19:00:55;16.95;;;13.43;;
24743;SDS011;12844;52.110;5.548;2023-02-10T19:03:20;19.08;;;14.77;;
24743;SDS011;12844;52.110;5.548;2023-02-10T19:05:46;17.33;;;13.45;;
24743;SDS011;12844;52.110;5.548;2023-02-10T19:08:11;17.27;;;13.38;;
24743;SDS011;12844;52.110;5.548;2023-02-10T19:10:37;17.88;;;14.48;;
24743;SDS011;12844;52.110;5.548;2023-02-10T19:13:03;16.67;;;13.18;;
24743;SDS011;12844;52.110;5.548;2023-02-10T19:15:28;15.70;;;13.48;;
24743;SDS011;12844;52.110;5.548;2023-02-10T19:17:54;16.88;;;13.80;;
24743;SDS011;12844;52.110;5.548;2023-02-10T19:20:19;18.27;;;14.10;;
24743;SDS011;12844;52.110;5.548;2023-02-10T19:22:45;17.88;;;13.35;;
24743;SDS011;12844;52.110;5.548;2023-02-10T19:25:10;17.63;;;14.07;;
24743;SDS011;12844;52.110;5.548;2023-02-10T19:27:36;17.45;;;13.38;;
24743;SDS011;12844;52.110;5.548;2023-02-10T19:30:02;16.83;;;13.48;;
24743;SDS011;12844;52.110;5.548;2023-02-10T19:32:28;17.75;;;13.52;;
24743;SDS011;12844;52.110;5.548;2023-02-10T19:34:53;15.48;;;12.73;;
24743;SDS011;12844;52.110;5.548;2023-02-10T19:37:20;18.27;;;13.48;;
24743;SDS011;12844;52.110;5.548;2023-02-10T19:39:46;16.27;;;13.75;;
24743;SDS011;12844;52.110;5.548;2023-02-10T19:42:12;15.50;;;13.40;;
24743;SDS011;12844;52.110;5.548;2023-02-10T19:44:37;15.65;;;13.10;;
24743;SDS011;12844;52.110;5.548;2023-02-10T19:47:03;16.20;;;13.48;;
24743;SDS011;12844;52.110;5.548;2023-02-10T19:49:28;17.33;;;13.55;;
24743;SDS011;12844;52.110;5.548;2023-02-10T19:51:54;17.67;;;13.82;;
24743;SDS011;12844;52.110;5.548;2023-02-10T19:54:20;20.38;;;13.98;;
24743;SDS011;12844;52.110;5.548;2023-02-10T19:56:46;21.13;;;13.98;;
24743;SDS011;12844;52.110;5.548;2023-02-10T19:59:12;17.52;;;14.63;;
24743;SDS011;12844;52.110;5.548;2023-02-10T20:01:38;16.10;;;12.63;;
24743;SDS011;12844;52.110;5.548;2023-02-10T20:04:04;18.02;;;13.73;;
24743;SDS011;12844;52.110;5.548;2023-02-10T20:06:40;15.85;;;13.02;;
24743;SDS011;12844;52.110;5.548;2023-02-10T20:09:08;19.10;;;13.63;;
24743;SDS011;12844;52.110;5.548;2023-02-10T20:11:34;17.10;;;13.10;;
24743;SDS011;12844;52.110;5.548;2023-02-10T20:14:00;17.92;;;13.90;;
24743;SDS011;12844;52.110;5.548;2023-02-10T20:16:26;17.08;;;13.38;;
24743;SDS011;12844;52.110;5.548;2023-02-10T20:18:53;16.83;;;13.38;;
24743;SDS011;12844;52.110;5.548;2023-02-10T20:21:18;16.92;;;13.80;;
24743;SDS011;12844;52.110;5.548;2023-02-10T20:23:45;18.50;;;14.35;;
24743;SDS011;12844;52.110;5.548;2023-02-10T20:26:11;15.90;;;12.75;;
24743;SDS011;12844;52.110;5.548;2023-02-10T20:28:39;19.83;;;14.50;;
24743;SDS011;12844;52.110;5.548;2023-02-10T20:31:05;18.35;;;14.18;;
24743;SDS011;12844;52.110;5.548;2023-02-10T20:33:35;20.02;;;15.20;;
24743;SDS011;12844;52.110;5.548;2023-02-10T20:36:02;18.13;;;13.40;;
24743;SDS011;12844;52.110;5.548;2023-02-10T20:38:29;17.83;;;14.00;;
24743;SDS011;12844;52.110;5.548;2023-02-10T20:40:59;18.65;;;13.52;;
24743;SDS011;12844;52.110;5.548;2023-02-10T20:45:53;20.10;;;13.95;;
24743;SDS011;12844;52.110;5.548;2023-02-10T20:48:19;18.90;;;14.13;;
24743;SDS011;12844;52.110;5.548;2023-02-10T20:50:45;17.50;;;13.13;;
24743;SDS011;12844;52.110;5.548;2023-02-10T20:53:10;18.48;;;13.70;;
24743;SDS011;12844;52.110;5.548;2023-02-10T20:55:36;17.15;;;13.23;;
24743;SDS011;12844;52.110;5.548;2023-02-10T20:58:02;17.15;;;13.70;;
24743;SDS011;12844;52.110;5.548;2023-02-10T21:00:28;19.25;;;14.18;;
24743;SDS011;12844;52.110;5.548;2023-02-10T21:02:54;19.20;;;13.90;;
24743;SDS011;12844;52.110;5.548;2023-02-10T21:05:21;18.60;;;13.05;;
24743;SDS011;12844;52.110;5.548;2023-02-10T21:07:47;18.13;;;13.40;;
24743;SDS011;12844;52.110;5.548;2023-02-10T21:10:13;16.80;;;12.57;;
24743;SDS011;12844;52.110;5.548;2023-02-10T21:12:38;15.48;;;12.45;;
24743;SDS011;12844;52.110;5.548;2023-02-10T21:15:04;15.95;;;12.40;;
24743;SDS011;12844;52.110;5.548;2023-02-10T21:17:30;17.67;;;13.43;;
24743;SDS011;12844;52.110;5.548;2023-02-10T21:19:55;16.73;;;13.18;;
24743;SDS011;12844;52.110;5.548;2023-02-10T21:22:21;17.65;;;12.90;;
24743;SDS011;12844;52.110;5.548;2023-02-10T21:24:46;15.77;;;12.20;;
24743;SDS011;12844;52.110;5.548;2023-02-10T21:27:13;16.98;;;12.43;;
24743;SDS011;12844;52.110;5.548;2023-02-10T21:29:38;16.17;;;12.30;;
24743;SDS011;12844;52.110;5.548;2023-02-10T21:32:04;15.65;;;12.02;;
24743;SDS011;12844;52.110;5.548;2023-02-10T21:34:30;16.95;;;12.52;;
24743;SDS011;12844;52.110;5.548;2023-02-10T21:36:55;16.00;;;12.45;;
24743;SDS011;12844;52.110;5.548;2023-02-10T21:39:21;17.85;;;13.43;;
24743;SDS011;12844;52.110;5.548;2023-02-10T21:41:47;15.68;;;12.10;;
24743;SDS011;12844;52.110;5.548;2023-02-10T21:46:41;15.18;;;11.40;;
24743;SDS011;12844;52.110;5.548;2023-02-10T21:49:08;14.75;;;10.65;;
24743;SDS011;12844;52.110;5.548;2023-02-10T21:51:34;16.60;;;10.60;;
24743;SDS011;12844;52.110;5.548;2023-02-10T21:54:00;13.95;;;10.55;;
24743;SDS011;12844;52.110;5.548;2023-02-10T21:56:27;14.77;;;9.90;;
24743;SDS011;12844;52.110;5.548;2023-02-10T21:58:54;17.15;;;9.35;;
24743;SDS011;12844;52.110;5.548;2023-02-10T22:01:20;12.70;;;9.65;;
24743;SDS011;12844;52.110;5.548;2023-02-10T22:03:46;12.73;;;9.00;;
24743;SDS011;12844;52.110;5.548;2023-02-10T22:06:11;11.65;;;9.18;;
24743;SDS011;12844;52.110;5.548;2023-02-10T22:08:37;11.15;;;8.40;;
24743;SDS011;12844;52.110;5.548;2023-02-10T22:11:13;12.73;;;8.65;;
24743;SDS011;12844;52.110;5.548;2023-02-10T22:13:40;10.57;;;7.60;;
24743;SDS011;12844;52.110;5.548;2023-02-10T22:16:07;10.85;;;7.65;;
24743;SDS011;12844;52.110;5.548;2023-02-10T22:18:34;9.18;;;7.32;;
24743;SDS011;12844;52.110;5.548;2023-02-10T22:21:03;9.82;;;6.90;;
24743;SDS011;12844;52.110;5.548;2023-02-10T22:23:34;11.65;;;7.22;;
24743;SDS011;12844;52.110;5.548;2023-02-10T22:26:00;9.18;;;6.60;;
24743;SDS011;12844;52.110;5.548;2023-02-10T22:28:26;7.25;;;5.95;;
24743;SDS011;12844;52.110;5.548;2023-02-10T22:30:53;9.13;;;6.18;;
24743;SDS011;12844;52.110;5.548;2023-02-10T22:33:19;7.60;;;5.93;;
24743;SDS011;12844;52.110;5.548;2023-02-10T22:35:45;8.77;;;5.80;;
24743;SDS011;12844;52.110;5.548;2023-02-10T22:38:10;9.82;;;5.30;;
24743;SDS011;12844;52.110;5.548;2023-02-10T22:40:38;9.48;;;5.00;;
24743;SDS011;12844;52.110;5.548;2023-02-10T22:43:05;7.10;;;5.30;;
24743;SDS011;12844;52.110;5.548;2023-02-10T22:45:30;8.35;;;5.35;;
24743;SDS011;12844;52.110;5.548;2023-02-10T22:47:56;7.20;;;4.90;;
24743;SDS011;12844;52.110;5.548;2023-02-10T22:50:21;8.35;;;4.68;;
24743;SDS011;12844;52.110;5.548;2023-02-10T22:52:47;6.70;;;4.40;;
24743;SDS011;12844;52.110;5.548;2023-02-10T22:55:12;7.82;;;4.97;;
24743;SDS011;12844;52.110;5.548;2023-02-10T22:57:38;6.10;;;4.30;;
24743;SDS011;12844;52.110;5.548;2023-02-10T23:00:08;6.70;;;4.38;;
24743;SDS011;12844;52.110;5.548;2023-02-10T23:02:34;8.00;;;4.57;;
24743;SDS011;12844;52.110;5.548;2023-02-10T23:05:00;6.25;;;4.07;;
24743;SDS011;12844;52.110;5.548;2023-02-10T23:07:26;5.88;;;4.60;;
24743;SDS011;12844;52.110;5.548;2023-02-10T23:09:51;7.25;;;4.00;;
24743;SDS011;12844;52.110;5.548;2023-02-10T23:12:18;5.88;;;3.67;;
24743;SDS011;12844;52.110;5.548;2023-02-10T23:14:45;8.15;;;3.85;;
24743;SDS011;12844;52.110;5.548;2023-02-10T23:17:11;5.88;;;3.90;;
24743;SDS011;12844;52.110;5.548;2023-02-10T23:19:37;5.80;;;3.72;;
24743;SDS011;12844;52.110;5.548;2023-02-10T23:22:03;7.03;;;3.90;;
24743;SDS011;12844;52.110;5.548;2023-02-10T23:24:31;7.95;;;3.80;;
24743;SDS011;12844;52.110;5.548;2023-02-10T23:26:57;5.38;;;3.72;;
24743;SDS011;12844;52.110;5.548;2023-02-10T23:29:22;6.32;;;3.88;;
24743;SDS011;12844;52.110;5.548;2023-02-10T23:31:48;5.43;;;3.80;;
24743;SDS011;12844;52.110;5.548;2023-02-10T23:34:13;5.90;;;3.60;;
24743;SDS011;12844;52.110;5.548;2023-02-10T23:36:41;5.97;;;3.80;;
24743;SDS011;12844;52.110;5.548;2023-02-10T23:39:07;7.15;;;4.07;;
24743;SDS011;12844;52.110;5.548;2023-02-10T23:41:33;4.55;;;3.60;;
24743;SDS011;12844;52.110;5.548;2023-02-10T23:44:01;5.57;;;3.70;;
24743;SDS011;12844;52.110;5.548;2023-02-10T23:46:27;5.22;;;3.38;;
24743;SDS011;12844;52.110;5.548;2023-02-10T23:48:52;5.65;;;3.50;;
24743;SDS011;12844;52.110;5.548;2023-02-10T23:51:19;5.53;;;3.40;;
24743;SDS011;12844;52.110;5.548;2023-02-10T23:53:45;5.30;;;3.05;;
24743;SDS011;12844;52.110;5.548;2023-02-10T23:56:12;5.07;;;3.30;;
24743;SDS011;12844;52.110;5.548;2023-02-10T23:58:38;6.43;;;3.40;;
